Time;durP1;ratioP1;P1;durP2;ratioP2;P2;SDS_P1;SDS_P2;PMS_P1;PMS_P2;Temp;Humidity;BMP_temperature;BMP_pressure;BME280_temperature;BME280_humidity;BME280_pressure;Samples;Min_cycle;Max_cycle;Signal;HPM_P1;HPM_P2
2023/02/21 02:14:29;;;;;;;3.90;2.97;;;9.00;99.90;;;;;;7305883;19;2004488;-88
2023/02/21 02:17:12;;;;;;;3.72;3.30;;;9.00;99.90;;;;;;7411372;19;20311;-89
2023/02/21 02:20:05;;;;;;;4.93;3.53;;;9.00;99.90;;;;;;7306383;19;2004175;-88
2023/02/21 02:23:08;;;;;;;4.00;3.28;;;9.00;99.90;;;;;;7305330;19;2004435;-86
2023/02/21 02:25:55;;;;;;;4.70;3.75;;;9.10;99.90;;;;;;7305107;19;2004313;-88
2023/02/21 02:29:02;;;;;;;4.20;3.15;;;9.10;99.90;;;;;;7408634;19;20399;-87
2023/02/21 02:31:56;;;;;;;4.30;3.10;;;9.10;99.90;;;;;;7203081;19;2004296;-87
2023/02/21 02:34:59;;;;;;;4.82;3.10;;;9.10;99.90;;;;;;7407641;19;20357;-94
2023/02/21 02:37:39;;;;;;;3.72;3.20;;;9.10;99.90;;;;;;7303928;19;2004205;-91
2023/02/21 02:40:33;;;;;;;4.00;3.30;;;9.10;99.90;;;;;;7305995;19;2004184;-89
2023/02/21 02:43:15;;;;;;;3.88;3.35;;;9.10;99.90;;;;;;7304188;19;2004280;-91
2023/02/21 02:46:12;;;;;;;4.47;3.30;;;9.10;99.90;;;;;;7412394;19;20324;-92
2023/02/21 02:48:41;;;;;;;4.93;3.92;;;9.10;99.90;;;;;;7306087;19;2004507;-88
2023/02/21 02:51:08;;;;;;;4.03;3.53;;;9.10;99.90;;;;;;7409701;19;20321;-87
2023/02/21 02:53:34;;;;;;;4.38;3.42;;;9.20;99.90;;;;;;7411216;19;20325;-90
2023/02/21 02:56:02;;;;;;;4.43;3.53;;;9.10;99.90;;;;;;7409529;19;20517;-84
2023/02/21 02:58:40;;;;;;;4.60;3.63;;;9.10;99.90;;;;;;7410086;19;20346;-89
2023/02/21 03:01:24;;;;;;;4.37;3.50;;;9.10;99.90;;;;;;7408039;19;20316;-87
2023/02/21 03:04:10;;;;;;;4.32;3.70;;;9.10;99.90;;;;;;7409325;19;20315;-91
2023/02/21 03:07:05;;;;;;;4.35;3.70;;;9.10;99.90;;;;;;7285173;19;2004216;-81
2023/02/21 03:10:18;;;;;;;5.25;3.80;;;9.00;99.90;;;;;;7297137;19;2004257;-82
2023/02/21 03:12:55;;;;;;;4.00;3.17;;;9.10;99.90;;;;;;7294770;19;2004229;-85
2023/02/21 03:15:24;;;;;;;4.88;3.72;;;9.10;99.90;;;;;;7380590;19;20309;-87
2023/02/21 03:18:13;;;;;;;5.20;4.00;;;9.10;99.90;;;;;;7402819;19;20343;-85
2023/02/21 03:20:38;;;;;;;4.18;3.50;;;9.10;99.90;;;;;;7290010;19;2004533;-86
2023/02/21 03:23:04;;;;;;;3.80;3.27;;;9.10;99.90;;;;;;7401236;19;20309;-85
2023/02/21 03:25:30;;;;;;;5.47;4.45;;;9.10;99.90;;;;;;7398708;19;20842;-87
2023/02/21 03:27:58;;;;;;;3.70;3.33;;;9.10;99.90;;;;;;7398123;19;20332;-83
2023/02/21 03:30:28;;;;;;;3.97;3.50;;;9.10;99.90;;;;;;7398277;19;20995;-89
2023/02/21 03:32:54;;;;;;;4.70;3.90;;;9.10;99.90;;;;;;7400343;19;20313;-85
2023/02/21 03:35:22;;;;;;;4.28;3.35;;;9.10;99.90;;;;;;7402117;19;20317;-89
2023/02/21 03:37:51;;;;;;;4.50;3.83;;;9.10;99.90;;;;;;7399628;19;20329;-87
2023/02/21 03:40:22;;;;;;;4.97;3.42;;;9.20;99.90;;;;;;7401488;19;20396;-87
2023/02/21 03:42:50;;;;;;;5.17;3.70;;;9.10;99.90;;;;;;7399532;19;20305;-87
2023/02/21 03:45:17;;;;;;;4.32;3.72;;;9.10;99.90;;;;;;7400762;19;20865;-86
2023/02/21 03:47:50;;;;;;;4.90;3.50;;;9.20;99.90;;;;;;7397612;19;20652;-82
2023/02/21 03:50:17;;;;;;;3.92;3.50;;;9.20;99.90;;;;;;7399032;19;20756;-93
2023/02/21 03:52:43;;;;;;;4.88;3.85;;;9.20;99.90;;;;;;7398825;19;20308;-81
2023/02/21 03:55:09;;;;;;;5.80;4.20;;;9.10;99.90;;;;;;7387430;19;20313;-81
2023/02/21 03:57:34;;;;;;;4.03;3.63;;;9.10;99.90;;;;;;7385352;19;20324;-81
2023/02/21 04:00:00;;;;;;;4.90;3.85;;;9.10;99.90;;;;;;7397297;19;20317;-84
2023/02/21 04:02:26;;;;;;;6.03;3.67;;;9.10;99.90;;;;;;7400362;19;20655;-88
2023/02/21 04:04:53;;;;;;;4.90;4.05;;;9.10;99.90;;;;;;7402466;19;20300;-89
2023/02/21 04:07:21;;;;;;;5.85;3.65;;;9.20;99.90;;;;;;7402503;19;20331;-85
2023/02/21 04:09:48;;;;;;;5.13;4.10;;;9.10;99.90;;;;;;7403085;19;20304;-83
2023/02/21 04:12:19;;;;;;;5.30;4.20;;;9.20;99.90;;;;;;7405267;19;20324;-85
2023/02/21 04:14:45;;;;;;;5.22;3.83;;;9.20;99.90;;;;;;7400612;19;20324;-90
2023/02/21 04:17:11;;;;;;;6.47;4.30;;;9.20;99.90;;;;;;7404018;19;20324;-88
2023/02/21 04:19:39;;;;;;;6.67;4.30;;;9.20;99.90;;;;;;7405752;19;20335;-88
2023/02/21 04:22:05;;;;;;;6.25;4.30;;;9.20;99.90;;;;;;7404149;19;20320;-87
2023/02/21 04:24:31;;;;;;;5.40;4.27;;;9.20;99.90;;;;;;7403405;19;20350;-88
2023/02/21 04:26:57;;;;;;;5.95;4.35;;;9.20;99.90;;;;;;7403520;19;20444;-89
2023/02/21 04:29:23;;;;;;;6.22;4.47;;;9.30;99.90;;;;;;7404734;19;20309;-89
2023/02/21 04:31:50;;;;;;;5.22;4.10;;;9.20;99.90;;;;;;7406191;19;20329;-87
2023/02/21 04:34:16;;;;;;;6.30;4.68;;;9.20;99.90;;;;;;7406439;19;20329;-90
2023/02/21 04:36:43;;;;;;;6.40;4.25;;;9.20;99.90;;;;;;7406641;19;20304;-89
2023/02/21 04:39:08;;;;;;;6.07;4.50;;;9.30;99.90;;;;;;7407590;19;20389;-89
2023/02/21 04:41:35;;;;;;;5.45;4.22;;;9.30;99.90;;;;;;7404408;19;20831;-89
2023/02/21 04:44:01;;;;;;;6.22;4.22;;;9.20;99.90;;;;;;7406317;19;20317;-89
2023/02/21 04:46:31;;;;;;;5.85;4.80;;;9.20;99.90;;;;;;7404307;19;20320;-83
2023/02/21 04:48:57;;;;;;;6.10;4.78;;;9.20;99.90;;;;;;7404464;19;20330;-92
2023/02/21 04:51:23;;;;;;;6.50;4.78;;;9.20;99.90;;;;;;7404557;19;20972;-87
2023/02/21 04:53:49;;;;;;;7.03;4.85;;;9.20;99.90;;;;;;7404290;19;20328;-88
2023/02/21 04:56:14;;;;;;;5.13;4.47;;;9.20;99.90;;;;;;7404899;19;20327;-91
2023/02/21 04:58:40;;;;;;;6.70;5.10;;;9.20;99.90;;;;;;7404624;19;20447;-89
2023/02/21 05:01:06;;;;;;;5.07;4.57;;;9.10;99.90;;;;;;7408811;19;20328;-88
2023/02/21 05:03:32;;;;;;;6.15;5.18;;;9.10;99.90;;;;;;7408101;19;20325;-89
2023/02/21 05:05:57;;;;;;;6.00;4.90;;;9.10;99.90;;;;;;7409439;19;20317;-87
2023/02/21 05:08:23;;;;;;;6.53;5.00;;;9.10;99.90;;;;;;7408977;19;20809;-88
2023/02/21 05:10:49;;;;;;;6.97;5.40;;;9.10;99.90;;;;;;7411782;19;20304;-84
2023/02/21 05:13:15;;;;;;;7.23;5.43;;;9.10;99.90;;;;;;7410700;19;20316;-86
2023/02/21 05:15:40;;;;;;;7.97;5.40;;;9.10;99.90;;;;;;7412743;19;20363;-88
2023/02/21 05:18:06;;;;;;;7.73;5.77;;;9.10;99.90;;;;;;7414294;19;20345;-88
2023/02/21 05:20:37;;;;;;;5.85;5.00;;;9.10;99.90;;;;;;7401748;19;20321;-88
2023/02/21 05:23:05;;;;;;;6.43;5.25;;;9.10;99.90;;;;;;7407594;19;20308;-90
2023/02/21 05:25:55;;;;;;;7.13;5.50;;;9.10;99.90;;;;;;7366505;19;20316;-86
2023/02/21 05:28:22;;;;;;;5.72;4.68;;;9.20;99.90;;;;;;7409427;19;20345;-85
2023/02/21 05:31:00;;;;;;;6.53;5.25;;;9.20;99.90;;;;;;7367478;19;20312;-81
2023/02/21 05:33:27;;;;;;;6.78;5.50;;;9.10;99.90;;;;;;7368196;19;20324;-81
2023/02/21 05:35:56;;;;;;;6.32;5.68;;;9.10;99.90;;;;;;7390027;19;20326;-90
2023/02/21 05:38:29;;;;;;;7.25;5.68;;;9.20;99.90;;;;;;7310991;19;2004237;-89
2023/02/21 05:40:56;;;;;;;6.80;6.07;;;9.10;99.90;;;;;;7406474;19;20305;-92
2023/02/21 05:43:22;;;;;;;6.18;5.32;;;9.00;99.90;;;;;;7413110;19;20321;-88
2023/02/21 05:45:48;;;;;;;7.33;5.27;;;9.10;99.90;;;;;;7414905;19;20324;-88
2023/02/21 05:48:13;;;;;;;6.47;4.90;;;9.10;99.90;;;;;;7414324;19;20370;-88
2023/02/21 05:50:39;;;;;;;7.05;4.72;;;9.00;99.90;;;;;;7415478;19;20423;-88
2023/02/21 05:53:05;;;;;;;6.88;5.28;;;9.20;99.90;;;;;;7415147;19;20312;-86
2023/02/21 05:55:31;;;;;;;6.63;5.23;;;9.00;99.90;;;;;;7414336;19;20334;-85
2023/02/21 05:57:56;;;;;;;7.95;4.93;;;9.00;99.90;;;;;;7414447;19;20317;-89
2023/02/21 06:00:26;;;;;;;6.33;5.00;;;9.00;99.90;;;;;;7414867;19;20297;-87
2023/02/21 06:02:52;;;;;;;5.97;4.97;;;9.00;99.90;;;;;;7416806;19;20445;-89
2023/02/21 06:05:18;;;;;;;6.60;5.20;;;9.00;99.90;;;;;;7417060;19;20308;-87
2023/02/21 06:07:44;;;;;;;5.70;5.10;;;8.90;99.90;;;;;;7415526;19;20336;-88
2023/02/21 06:10:11;;;;;;;5.67;4.67;;;8.90;99.90;;;;;;7414275;19;21213;-89
2023/02/21 06:12:37;;;;;;;5.70;4.97;;;8.80;99.90;;;;;;7416566;19;20328;-92
2023/02/21 06:15:06;;;;;;;6.57;5.05;;;8.80;99.90;;;;;;7415015;19;20418;-88
2023/02/21 06:17:33;;;;;;;8.20;5.50;;;8.80;99.90;;;;;;7416404;19;20316;-90
2023/02/21 06:19:58;;;;;;;7.25;5.13;;;8.80;99.90;;;;;;7416235;19;20289;-84
2023/02/21 06:22:24;;;;;;;6.78;5.10;;;8.80;99.90;;;;;;7416795;19;20345;-86
2023/02/21 06:24:50;;;;;;;7.13;5.50;;;8.80;99.90;;;;;;7415587;19;20328;-88
2023/02/21 06:27:15;;;;;;;5.35;4.50;;;8.80;99.90;;;;;;7415857;19;20353;-89
2023/02/21 06:29:41;;;;;;;7.47;5.60;;;8.80;99.90;;;;;;7414571;19;20344;-89
2023/02/21 06:32:06;;;;;;;6.57;4.85;;;8.90;99.90;;;;;;7415909;19;20316;-88
2023/02/21 06:34:32;;;;;;;5.80;5.07;;;8.90;99.90;;;;;;7414894;19;20352;-87
2023/02/21 06:36:58;;;;;;;7.70;5.47;;;8.80;99.90;;;;;;7416118;19;20339;-88
2023/02/21 06:39:23;;;;;;;5.47;4.87;;;8.80;99.90;;;;;;7412615;19;20329;-86
2023/02/21 06:41:49;;;;;;;6.30;5.17;;;8.80;99.90;;;;;;7416502;19;20420;-87
2023/02/21 06:44:15;;;;;;;6.55;5.68;;;8.80;99.90;;;;;;7413251;19;20300;-90
2023/02/21 06:46:41;;;;;;;7.47;5.45;;;8.80;99.90;;;;;;7413023;19;20337;-89
2023/02/21 06:49:06;;;;;;;7.25;5.55;;;8.80;99.90;;;;;;7413626;19;20309;-87
2023/02/21 06:51:36;;;;;;;6.03;5.13;;;8.80;99.90;;;;;;7413768;19;20316;-91
2023/02/21 06:54:01;;;;;;;8.27;5.80;;;8.80;99.90;;;;;;7409725;19;20363;-85
2023/02/21 06:56:28;;;;;;;6.47;5.63;;;8.80;99.90;;;;;;7404463;19;20813;-87
2023/02/21 06:58:54;;;;;;;6.93;5.55;;;8.70;99.90;;;;;;7400019;19;20826;-84
2023/02/21 07:01:19;;;;;;;7.18;5.38;;;8.70;99.90;;;;;;7395425;19;20299;-83
2023/02/21 07:03:46;;;;;;;6.63;5.20;;;8.80;99.90;;;;;;7400251;19;20315;-84
2023/02/21 07:06:12;;;;;;;6.93;5.55;;;8.80;99.90;;;;;;7403822;19;20329;-82
2023/02/21 07:08:38;;;;;;;6.53;5.70;;;8.70;99.90;;;;;;7406954;19;20364;-89
2023/02/21 07:11:04;;;;;;;7.25;5.90;;;8.80;99.90;;;;;;7407691;19;20308;-83
2023/02/21 07:13:30;;;;;;;6.53;5.50;;;8.70;99.90;;;;;;7406650;19;20312;-89
2023/02/21 07:15:56;;;;;;;8.10;5.47;;;8.80;99.90;;;;;;7410355;19;20365;-89
2023/02/21 07:18:21;;;;;;;6.03;5.23;;;8.80;99.90;;;;;;7411554;19;20305;-89
2023/02/21 07:20:48;;;;;;;9.75;7.22;;;8.80;99.90;;;;;;7404471;19;20439;-89
2023/02/21 07:23:16;;;;;;;6.45;5.25;;;8.80;99.90;;;;;;7409254;19;20356;-81
2023/02/21 07:25:41;;;;;;;5.35;4.85;;;8.80;99.90;;;;;;7391620;19;20329;-79
2023/02/21 07:28:13;;;;;;;5.90;5.03;;;8.80;99.90;;;;;;7367854;19;20320;-80
2023/02/21 07:30:39;;;;;;;5.90;5.13;;;8.90;99.90;;;;;;7398535;19;20392;-88
2023/02/21 07:33:06;;;;;;;6.57;5.25;;;8.80;99.90;;;;;;7392895;19;20324;-83
2023/02/21 07:35:33;;;;;;;6.80;5.18;;;8.80;99.90;;;;;;7395447;19;20321;-83
2023/02/21 07:37:59;;;;;;;6.53;4.85;;;8.80;99.90;;;;;;7401951;19;20312;-84
2023/02/21 07:40:25;;;;;;;5.95;4.68;;;8.80;99.90;;;;;;7404688;19;20329;-90
2023/02/21 07:42:54;;;;;;;5.53;4.80;;;8.80;99.90;;;;;;7413279;19;20317;-90
2023/02/21 07:45:22;;;;;;;5.18;4.53;;;8.90;99.90;;;;;;7404432;19;20908;-88
2023/02/21 07:47:49;;;;;;;5.47;4.90;;;8.90;99.90;;;;;;7405263;19;20361;-88
2023/02/21 07:50:16;;;;;;;8.75;4.40;;;8.90;99.90;;;;;;7385463;19;20320;-85
2023/02/21 07:52:44;;;;;;;5.25;4.47;;;9.00;99.90;;;;;;7405935;19;20343;-85
2023/02/21 07:55:12;;;;;;;4.35;3.95;;;8.90;99.90;;;;;;7401102;19;20324;-83
2023/02/21 07:57:39;;;;;;;4.55;4.15;;;9.00;99.90;;;;;;7399315;19;20362;-82
2023/02/21 08:00:05;;;;;;;5.03;4.50;;;8.90;99.90;;;;;;7400714;19;20332;-82
2023/02/21 08:02:47;;;;;;;6.30;5.10;;;9.00;99.90;;;;;;7402407;19;20304;-87
2023/02/21 08:05:14;;;;;;;5.03;4.38;;;8.90;99.90;;;;;;7397712;19;20325;-84
2023/02/21 08:07:46;;;;;;;5.10;4.53;;;9.00;99.90;;;;;;7395652;19;20375;-83
2023/02/21 08:10:12;;;;;;;4.60;4.10;;;9.00;99.90;;;;;;7397075;19;20356;-88
2023/02/21 08:12:38;;;;;;;6.82;5.00;;;9.00;99.90;;;;;;7388771;19;20363;-82
2023/02/21 08:15:04;;;;;;;6.53;4.35;;;9.00;99.90;;;;;;7389148;19;20312;-82
2023/02/21 08:17:30;;;;;;;5.50;4.43;;;9.00;99.90;;;;;;7383859;19;20391;-82
2023/02/21 08:19:56;;;;;;;5.85;4.45;;;9.00;99.90;;;;;;7384747;19;20337;-80
2023/02/21 08:22:22;;;;;;;5.37;4.57;;;8.90;99.90;;;;;;7387991;19;20379;-79
2023/02/21 08:24:50;;;;;;;5.72;4.57;;;8.90;99.90;;;;;;7384292;19;20304;-81
2023/02/21 08:27:17;;;;;;;5.95;4.75;;;8.90;99.90;;;;;;7386825;19;20412;-79
2023/02/21 08:29:43;;;;;;;5.70;4.40;;;8.90;99.90;;;;;;7380829;19;20344;-78
2023/02/21 08:32:09;;;;;;;6.68;5.15;;;8.90;99.90;;;;;;7384132;19;20300;-81
2023/02/21 08:34:35;;;;;;;5.70;4.63;;;9.00;99.90;;;;;;7376063;19;20421;-83
2023/02/21 08:37:00;;;;;;;5.63;4.50;;;9.00;99.90;;;;;;7382188;19;20308;-83
2023/02/21 08:39:28;;;;;;;5.43;4.70;;;8.90;99.90;;;;;;7390943;19;20301;-84
2023/02/21 08:41:54;;;;;;;5.13;4.38;;;8.90;99.90;;;;;;7388033;19;20325;-79
2023/02/21 08:44:23;;;;;;;5.63;4.53;;;8.90;99.90;;;;;;7388834;19;20324;-81
2023/02/21 08:46:48;;;;;;;5.13;4.30;;;9.00;99.90;;;;;;7388435;19;20325;-82
2023/02/21 08:49:15;;;;;;;5.03;4.35;;;9.00;99.90;;;;;;7386905;19;20319;-83
2023/02/21 08:51:41;;;;;;;4.90;4.38;;;8.90;99.90;;;;;;7394309;19;20348;-80
2023/02/21 08:54:06;;;;;;;5.00;4.50;;;8.80;99.90;;;;;;7391032;19;20323;-82
2023/02/21 08:56:32;;;;;;;5.07;4.20;;;8.90;99.90;;;;;;7387739;19;20334;-83
2023/02/21 08:58:58;;;;;;;5.00;4.50;;;8.90;99.90;;;;;;7389012;19;20304;-82
2023/02/21 09:01:30;;;;;;;4.57;4.15;;;8.90;99.90;;;;;;7380287;19;20312;-80
2023/02/21 09:03:56;;;;;;;6.47;4.38;;;8.90;99.90;;;;;;7381377;19;20301;-83
2023/02/21 09:06:22;;;;;;;4.67;4.20;;;8.90;99.90;;;;;;7390258;19;20306;-81
2023/02/21 09:08:50;;;;;;;5.78;4.85;;;8.90;99.90;;;;;;7385435;19;20332;-80
2023/02/21 09:11:15;;;;;;;4.80;4.23;;;8.90;99.90;;;;;;7387204;19;20343;-79
2023/02/21 09:13:41;;;;;;;5.28;4.75;;;8.90;99.90;;;;;;7380243;19;20841;-82
2023/02/21 09:16:06;;;;;;;5.57;4.80;;;8.90;99.90;;;;;;7384981;19;20335;-81
2023/02/21 09:18:32;;;;;;;5.55;4.60;;;8.80;99.90;;;;;;7382773;19;20300;-80
2023/02/21 09:20:58;;;;;;;5.30;4.80;;;8.90;99.90;;;;;;7387475;19;20300;-80
2023/02/21 09:23:25;;;;;;;6.03;5.00;;;8.90;99.90;;;;;;7386389;19;20317;-82
2023/02/21 09:25:50;;;;;;;5.97;4.70;;;9.00;99.90;;;;;;7385625;19;20327;-79
2023/02/21 09:28:16;;;;;;;5.65;4.78;;;9.00;99.90;;;;;;7383036;19;20304;-82
2023/02/21 09:30:41;;;;;;;6.47;4.70;;;9.00;99.90;;;;;;7381813;19;20341;-84
2023/02/21 09:33:07;;;;;;;4.90;4.40;;;9.10;99.90;;;;;;7381661;19;20333;-79
2023/02/21 09:35:33;;;;;;;4.73;4.07;;;9.10;99.90;;;;;;7376497;19;20313;-81
2023/02/21 09:37:59;;;;;;;5.05;4.07;;;9.10;99.90;;;;;;7380024;19;20324;-80
2023/02/21 09:40:44;;;;;;;5.18;4.28;;;9.20;99.90;;;;;;7380234;19;20312;-80
2023/02/21 09:43:40;;;;;;;5.10;4.20;;;9.20;99.90;;;;;;7274652;19;2004601;-78
2023/02/21 09:46:11;;;;;;;4.90;4.30;;;9.30;99.90;;;;;;7282326;19;2015779;-78
2023/02/21 09:48:36;;;;;;;4.85;4.35;;;9.30;99.90;;;;;;7384911;19;20900;-80
2023/02/21 09:51:04;;;;;;;5.17;4.20;;;9.30;99.90;;;;;;7384559;19;20403;-79
2023/02/21 09:53:32;;;;;;;5.35;4.20;;;9.40;99.90;;;;;;7388591;19;20327;-81
2023/02/21 09:56:01;;;;;;;5.40;4.07;;;9.30;99.90;;;;;;7391884;19;20356;-81
2023/02/21 09:58:27;;;;;;;4.87;3.80;;;9.40;99.90;;;;;;7382697;19;20776;-81
2023/02/21 10:00:52;;;;;;;4.75;4.22;;;9.40;99.90;;;;;;7385446;19;20327;-81
2023/02/21 10:03:33;;;;;;;3.57;3.27;;;9.40;99.90;;;;;;7388799;19;20745;-82
2023/02/21 10:06:08;;;;;;;3.75;3.25;;;9.50;99.90;;;;;;7397787;19;20328;-79
2023/02/21 10:08:53;;;;;;;3.90;3.30;;;9.50;99.90;;;;;;7288806;19;2004229;-84
2023/02/21 10:11:45;;;;;;;3.67;3.00;;;9.50;99.90;;;;;;7385009;19;20347;-84
2023/02/21 10:14:17;;;;;;;3.50;3.20;;;9.60;99.90;;;;;;7288168;19;2007901;-82
2023/02/21 10:16:53;;;;;;;2.85;2.63;;;9.70;99.90;;;;;;7386505;19;20325;-82
2023/02/21 10:19:34;;;;;;;3.03;2.50;;;9.70;99.90;;;;;;7384887;19;20452;-82
2023/02/21 10:22:01;;;;;;;2.60;2.38;;;9.70;99.90;;;;;;7389554;19;20342;-84
2023/02/21 10:24:27;;;;;;;2.33;2.10;;;9.60;99.90;;;;;;7387323;19;20392;-80
2023/02/21 10:27:00;;;;;;;2.23;2.03;;;9.70;99.90;;;;;;7390870;19;20327;-81
2023/02/21 10:29:36;;;;;;;2.05;1.95;;;9.60;99.90;;;;;;7391465;19;20964;-81
2023/02/21 10:32:03;;;;;;;1.55;1.45;;;9.60;99.90;;;;;;7284282;19;2004293;-83
2023/02/21 10:34:30;;;;;;;1.90;1.77;;;9.50;99.90;;;;;;7388303;19;20316;-79
2023/02/21 10:37:03;;;;;;;1.70;1.60;;;9.50;99.90;;;;;;7385488;19;20332;-80
2023/02/21 10:39:45;;;;;;;1.50;1.40;;;9.30;99.90;;;;;;7388375;19;20344;-80
2023/02/21 10:42:30;;;;;;;1.50;1.40;;;9.20;99.90;;;;;;7285862;19;2004322;-78
2023/02/21 10:44:56;;;;;;;2.33;1.40;;;9.20;99.90;;;;;;7389337;19;20357;-81
2023/02/21 10:47:48;;;;;;;1.33;1.23;;;9.40;99.90;;;;;;7385622;19;20332;-88
2023/02/21 10:50:13;;;;;;;1.55;1.45;;;9.40;99.90;;;;;;7305991;19;2004283;-91
2023/02/21 10:52:49;;;;;;;1.10;1.10;;;9.50;99.90;;;;;;7401507;19;20307;-90
2023/02/21 10:55:16;;;;;;;1.40;1.30;;;9.50;99.90;;;;;;7409883;19;20325;-90
2023/02/21 10:57:42;;;;;;;1.40;1.30;;;9.50;99.90;;;;;;7407254;19;20324;-90
2023/02/21 11:00:09;;;;;;;1.17;1.17;;;9.50;99.90;;;;;;7406524;19;20313;-91
2023/02/21 11:02:38;;;;;;;1.33;1.23;;;9.30;99.90;;;;;;7409248;19;20317;-90
2023/02/21 11:05:15;;;;;;;1.10;1.10;;;9.30;99.90;;;;;;7409327;19;20305;-86
2023/02/21 11:07:54;;;;;;;1.00;1.00;;;9.40;99.90;;;;;;7395520;19;20348;-85
2023/02/21 11:10:53;;;;;;;1.20;1.10;;;9.30;99.90;;;;;;7396716;19;20317;-84
2023/02/21 11:13:22;;;;;;;0.88;0.88;;;9.20;99.90;;;;;;7290383;19;2027363;-85
2023/02/21 11:15:48;;;;;;;0.95;0.95;;;9.20;99.90;;;;;;7396069;19;20400;-88
2023/02/21 11:18:23;;;;;;;0.90;0.90;;;9.20;99.90;;;;;;7404731;19;20316;-85
2023/02/21 11:20:49;;;;;;;1.88;1.10;;;9.20;99.90;;;;;;7406731;19;20312;-91
2023/02/21 11:23:19;;;;;;;1.23;1.20;;;9.20;99.90;;;;;;7405615;19;20324;-85
2023/02/21 11:25:45;;;;;;;2.80;2.35;;;9.20;99.90;;;;;;7406285;19;20369;-88
2023/02/21 11:28:13;;;;;;;1.40;1.00;;;9.30;99.90;;;;;;7405102;19;20309;-88
2023/02/21 11:30:58;;;;;;;1.00;1.00;;;9.20;99.90;;;;;;7403122;19;20333;-90
2023/02/21 11:33:23;;;;;;;0.70;0.70;;;9.30;99.90;;;;;;7408326;19;20309;-85
2023/02/21 11:35:50;;;;;;;1.00;1.00;;;9.30;99.90;;;;;;7406226;19;20329;-88
2023/02/21 11:38:36;;;;;;;0.80;0.80;;;9.40;99.90;;;;;;7402448;19;20335;-87
2023/02/21 11:41:26;;;;;;;0.80;0.80;;;9.50;99.90;;;;;;7298662;19;2004195;-86
2023/02/21 11:43:52;;;;;;;0.70;0.70;;;9.60;99.90;;;;;;7385277;19;20340;-79
2023/02/21 11:46:37;;;;;;;0.90;0.90;;;9.80;99.90;;;;;;7378686;19;20861;-80
2023/02/21 11:49:22;;;;;;;0.90;0.90;;;9.90;99.90;;;;;;7273750;19;2004658;-79
2023/02/21 11:52:06;;;;;;;1.20;1.00;;;9.90;99.90;;;;;;7369025;19;21008;-78
2023/02/21 11:54:32;;;;;;;0.70;0.70;;;9.90;99.90;;;;;;7269811;19;2004429;-80
2023/02/21 11:57:03;;;;;;;0.80;0.80;;;9.90;99.90;;;;;;7374729;19;20340;-80
2023/02/21 11:59:41;;;;;;;0.93;0.93;;;9.90;99.90;;;;;;7371387;19;21168;-80
2023/02/21 12:02:38;;;;;;;1.58;1.48;;;10.10;99.90;;;;;;7271895;19;2016989;-79
2023/02/21 12:05:32;;;;;;;0.80;0.80;;;10.20;99.90;;;;;;7271635;19;2004429;-81
2023/02/21 12:08:24;;;;;;;0.77;0.77;;;10.20;99.90;;;;;;7386151;19;20924;-84
2023/02/21 12:11:13;;;;;;;1.02;1.02;;;10.20;99.90;;;;;;7299080;19;2004221;-85
2023/02/21 12:14:16;;;;;;;1.02;0.93;;;10.30;99.90;;;;;;7290270;19;2004343;-84
2023/02/21 12:17:06;;;;;;;0.80;0.80;;;10.20;99.90;;;;;;7293564;19;2004509;-86
2023/02/21 12:19:36;;;;;;;0.80;0.80;;;10.20;99.90;;;;;;7287645;19;2004305;-86
2023/02/21 12:22:41;;;;;;;0.70;0.70;;;10.20;99.90;;;;;;7394048;19;21083;-85
2023/02/21 12:25:15;;;;;;;0.85;0.80;;;10.20;99.90;;;;;;7291097;19;2004232;-86
2023/02/21 12:27:59;;;;;;;1.50;0.90;;;10.30;99.90;;;;;;7378087;19;20336;-91
2023/02/21 12:30:37;;;;;;;1.45;1.30;;;10.30;99.90;;;;;;7383367;19;20320;-80
2023/02/21 12:33:18;;;;;;;0.60;0.60;;;10.30;99.90;;;;;;7290322;19;2004295;-85
2023/02/21 12:36:12;;;;;;;0.90;0.90;;;10.30;99.90;;;;;;7382895;19;20308;-86
2023/02/21 12:39:10;;;;;;;1.13;0.80;;;10.20;99.90;;;;;;7282308;19;2004062;-90
2023/02/21 12:41:55;;;;;;;1.55;1.10;;;10.20;99.90;;;;;;7289897;19;2004382;-82
2023/02/21 12:44:57;;;;;;;2.08;1.20;;;10.20;99.90;;;;;;7385109;19;20320;-85
2023/02/21 12:47:27;;;;;;;1.60;0.80;;;10.10;99.90;;;;;;7288801;19;2004365;-88
2023/02/21 12:50:22;;;;;;;0.77;0.77;;;10.00;99.90;;;;;;7389412;19;20332;-83
2023/02/21 12:53:01;;;;;;;0.80;0.80;;;10.00;99.90;;;;;;7285755;19;2004315;-87
2023/02/21 12:55:57;;;;;;;2.60;1.88;;;9.90;99.90;;;;;;7392405;19;20312;-85
2023/02/21 12:58:41;;;;;;;1.50;1.40;;;9.90;99.90;;;;;;7289796;19;2004232;-87
2023/02/21 13:01:24;;;;;;;3.23;2.23;;;9.90;99.90;;;;;;7293631;19;2004343;-82
2023/02/21 13:04:20;;;;;;;1.33;1.23;;;9.90;99.90;;;;;;7398166;19;20341;-89
2023/02/21 13:07:18;;;;;;;1.88;1.10;;;9.90;99.90;;;;;;7295434;19;2004226;-85
2023/02/21 13:09:59;;;;;;;1.90;1.70;;;9.90;99.90;;;;;;7294749;19;2004195;-89
2023/02/21 13:12:32;;;;;;;1.60;1.50;;;9.90;99.90;;;;;;7397677;19;20313;-87
2023/02/21 13:15:24;;;;;;;0.87;0.87;;;9.90;99.90;;;;;;7398488;19;20312;-86
2023/02/21 13:18:25;;;;;;;1.17;1.10;;;10.00;99.90;;;;;;7292932;19;2004246;-85
2023/02/21 13:21:18;;;;;;;0.80;0.80;;;9.90;99.90;;;;;;7290092;19;2004165;-84
2023/02/21 13:23:49;;;;;;;0.90;0.90;;;10.00;99.90;;;;;;7295487;19;2004220;-91
2023/02/21 13:26:30;;;;;;;1.53;1.13;;;9.90;99.90;;;;;;7406557;19;20301;-83
2023/02/21 13:28:56;;;;;;;0.70;0.70;;;10.00;99.90;;;;;;7404384;19;20321;-86
2023/02/21 13:31:24;;;;;;;0.50;0.50;;;9.80;99.90;;;;;;7403290;19;20316;-89
2023/02/21 13:33:58;;;;;;;0.80;0.80;;;9.80;99.90;;;;;;7404893;19;20328;-83
2023/02/21 13:36:42;;;;;;;0.60;0.60;;;9.70;99.90;;;;;;7406807;19;20308;-87
2023/02/21 13:39:17;;;;;;;1.92;0.80;;;9.70;99.90;;;;;;7297840;19;2004267;-90
2023/02/21 13:41:51;;;;;;;1.35;0.80;;;9.80;99.90;;;;;;7385134;19;20403;-90
2023/02/21 13:44:18;;;;;;;1.27;0.90;;;9.90;99.90;;;;;;7369888;19;20333;-91
2023/02/21 13:46:45;;;;;;;0.70;0.70;;;9.90;99.90;;;;;;7402862;19;20340;-88
2023/02/21 13:49:46;;;;;;;0.90;0.80;;;9.90;99.90;;;;;;7404803;19;20353;-91
2023/02/21 13:52:24;;;;;;;1.65;0.90;;;9.90;99.90;;;;;;7301458;19;2004195;-83
2023/02/21 13:55:14;;;;;;;1.60;1.10;;;10.00;99.90;;;;;;7404766;19;20387;-85
2023/02/21 13:57:44;;;;;;;0.75;0.75;;;10.00;99.90;;;;;;7300158;19;2004223;-88
2023/02/21 14:00:38;;;;;;;0.85;0.80;;;10.00;99.90;;;;;;7399815;19;20321;-87
2023/02/21 14:03:11;;;;;;;1.00;0.93;;;10.00;99.90;;;;;;7297866;19;2004192;-83
2023/02/21 14:05:49;;;;;;;0.57;0.57;;;10.00;99.90;;;;;;7401826;19;20371;-86
2023/02/21 14:08:17;;;;;;;0.80;0.80;;;10.00;99.90;;;;;;7404543;19;20301;-86
2023/02/21 14:16:12;;;;;;;0.70;0.70;;;10.00;99.90;;;;;;7338491;19;20355;-79
2023/02/21 14:18:37;;;;;;;1.00;1.00;;;10.00;99.90;;;;;;7365886;19;20349;-79
2023/02/21 14:21:18;;;;;;;1.77;0.70;;;10.10;99.90;;;;;;7368094;19;20335;-79
2023/02/21 14:23:54;;;;;;;0.85;0.80;;;10.10;99.90;;;;;;7370804;19;20436;-79
2023/02/21 14:26:41;;;;;;;0.63;0.63;;;10.20;99.90;;;;;;7350885;19;20325;-79
2023/02/21 14:29:07;;;;;;;1.33;1.10;;;10.20;99.90;;;;;;7269093;19;2004479;-78
2023/02/21 14:32:15;;;;;;;0.90;0.90;;;10.20;99.90;;;;;;7372315;19;20316;-80
2023/02/21 14:34:46;;;;;;;2.47;1.10;;;10.20;99.90;;;;;;7270294;19;2013386;-79
2023/02/21 14:37:38;;;;;;;3.97;2.47;;;10.20;99.90;;;;;;7374310;19;20344;-79
2023/02/21 14:40:13;;;;;;;1.98;1.50;;;10.20;99.90;;;;;;7268767;19;2019574;-79
2023/02/21 14:42:51;;;;;;;1.98;1.63;;;10.20;99.90;;;;;;7373934;19;20399;-79
2023/02/21 14:45:33;;;;;;;0.90;0.90;;;10.10;99.90;;;;;;7368395;19;20368;-79
2023/02/21 14:48:23;;;;;;;2.90;1.65;;;10.20;99.90;;;;;;7373436;19;20856;-80
2023/02/21 14:51:16;;;;;;;0.70;0.70;;;10.20;99.90;;;;;;7270045;19;2004513;-80
2023/02/21 14:54:08;;;;;;;1.63;1.10;;;10.10;99.90;;;;;;7269677;19;2004479;-80
2023/02/21 14:56:52;;;;;;;0.80;0.80;;;10.00;99.90;;;;;;7266712;19;2019835;-80
2023/02/21 14:59:31;;;;;;;0.93;0.70;;;10.00;99.90;;;;;;7378282;19;20877;-80
2023/02/21 15:02:15;;;;;;;1.07;1.00;;;9.90;99.90;;;;;;7375066;19;20317;-80
2023/02/21 15:04:56;;;;;;;1.30;1.20;;;9.90;99.90;;;;;;7273462;19;2004355;-80
2023/02/21 15:07:44;;;;;;;0.80;0.80;;;9.90;99.90;;;;;;7376539;19;20340;-79
2023/02/21 15:10:31;;;;;;;1.27;1.17;;;9.90;99.90;;;;;;7274319;19;2016130;-79
2023/02/21 15:13:01;;;;;;;2.10;1.80;;;9.90;99.90;;;;;;7377753;19;20357;-79
2023/02/21 15:15:42;;;;;;;2.65;1.90;;;10.00;99.90;;;;;;7376436;19;20316;-79
2023/02/21 15:18:09;;;;;;;2.03;1.42;;;10.00;99.90;;;;;;7275529;19;2020029;-80
2023/02/21 15:20:39;;;;;;;1.42;1.33;;;9.90;99.90;;;;;;7376395;19;20417;-79
2023/02/21 15:23:28;;;;;;;1.58;1.38;;;9.80;99.90;;;;;;7386454;19;20425;-79
2023/02/21 15:31:52;;;;;;;2.40;2.20;;;9.70;99.90;;;;;;7363048;19;20364;-80
2023/02/21 15:34:25;;;;;;;1.45;1.35;;;9.70;99.90;;;;;;7378210;19;20325;-79
2023/02/21 15:37:19;;;;;;;3.87;2.43;;;9.60;99.90;;;;;;7371646;19;20994;-79
2023/02/21 15:43:39;;;;;;;6.27;3.90;;;9.50;99.90;;;;;;7410344;19;20322;-81
2023/02/21 15:59:38;;;;;;;3.08;1.80;;;9.30;99.90;;;;;;7376782;19;20332;-76
2023/02/21 16:02:15;;;;;;;7.07;4.05;;;9.50;99.90;;;;;;7280270;19;2004411;-78
2023/02/21 16:04:46;;;;;;;6.72;3.63;;;9.30;99.90;;;;;;7380786;19;20320;-77
2023/02/21 16:07:38;;;;;;;5.85;4.03;;;9.30;99.90;;;;;;7383120;19;20313;-77